sensor_id;sensor_type;location;lat;lon;timestamp;P1;durP1;ratioP1;P2;durP2;ratioP2
29908;SDS011;36247;51.952;6.146;2024-01-06T00:01:47;27.10;;;14.18;;
29908;SDS011;36247;51.952;6.146;2024-01-06T00:04:13;30.17;;;15.18;;
29908;SDS011;36247;51.952;6.146;2024-01-06T00:06:38;27.08;;;15.07;;
29908;SDS011;36247;51.952;6.146;2024-01-06T00:09:05;26.30;;;15.57;;
29908;SDS011;36247;51.952;6.146;2024-01-06T00:11:33;23.98;;;13.40;;
29908;SDS011;36247;51.952;6.146;2024-01-06T00:13:59;20.35;;;11.70;;
29908;SDS011;36247;51.952;6.146;2024-01-06T00:16:24;21.65;;;11.75;;
29908;SDS011;36247;51.952;6.146;2024-01-06T00:18:50;20.17;;;11.65;;
29908;SDS011;36247;51.952;6.146;2024-01-06T00:21:16;21.83;;;10.90;;
29908;SDS011;36247;51.952;6.146;2024-01-06T00:23:41;18.95;;;10.82;;
29908;SDS011;36247;51.952;6.146;2024-01-06T00:26:07;18.70;;;10.93;;
29908;SDS011;36247;51.952;6.146;2024-01-06T00:28:37;19.88;;;10.57;;
29908;SDS011;36247;51.952;6.146;2024-01-06T00:31:04;17.67;;;10.73;;
29908;SDS011;36247;51.952;6.146;2024-01-06T00:33:31;18.80;;;10.63;;
29908;SDS011;36247;51.952;6.146;2024-01-06T00:35:58;20.85;;;10.73;;
29908;SDS011;36247;51.952;6.146;2024-01-06T00:38:24;19.20;;;10.70;;
29908;SDS011;36247;51.952;6.146;2024-01-06T00:40:50;21.02;;;11.35;;
29908;SDS011;36247;51.952;6.146;2024-01-06T00:43:15;21.00;;;10.98;;
29908;SDS011;36247;51.952;6.146;2024-01-06T00:45:40;21.30;;;11.63;;
29908;SDS011;36247;51.952;6.146;2024-01-06T00:48:06;20.95;;;11.73;;
29908;SDS011;36247;51.952;6.146;2024-01-06T00:50:33;20.38;;;10.80;;
29908;SDS011;36247;51.952;6.146;2024-01-06T00:52:59;22.88;;;11.98;;
29908;SDS011;36247;51.952;6.146;2024-01-06T00:55:24;22.50;;;11.75;;
29908;SDS011;36247;51.952;6.146;2024-01-06T00:57:51;21.08;;;11.45;;
29908;SDS011;36247;51.952;6.146;2024-01-06T01:00:16;22.98;;;12.45;;
29908;SDS011;36247;51.952;6.146;2024-01-06T01:02:42;23.80;;;12.55;;
29908;SDS011;36247;51.952;6.146;2024-01-06T01:05:07;24.48;;;13.20;;
29908;SDS011;36247;51.952;6.146;2024-01-06T01:07:33;25.73;;;14.35;;
29908;SDS011;36247;51.952;6.146;2024-01-06T01:10:00;21.88;;;12.77;;
29908;SDS011;36247;51.952;6.146;2024-01-06T01:12:25;21.98;;;12.35;;
29908;SDS011;36247;51.952;6.146;2024-01-06T01:14:51;23.27;;;12.77;;
29908;SDS011;36247;51.952;6.146;2024-01-06T01:17:18;25.35;;;13.65;;
29908;SDS011;36247;51.952;6.146;2024-01-06T01:19:43;25.77;;;13.63;;
29908;SDS011;36247;51.952;6.146;2024-01-06T01:22:09;23.40;;;12.80;;
29908;SDS011;36247;51.952;6.146;2024-01-06T01:24:35;25.33;;;15.00;;
29908;SDS011;36247;51.952;6.146;2024-01-06T01:27:01;24.65;;;13.45;;
29908;SDS011;36247;51.952;6.146;2024-01-06T01:29:29;26.27;;;14.55;;
29908;SDS011;36247;51.952;6.146;2024-01-06T01:31:54;27.38;;;14.65;;
29908;SDS011;36247;51.952;6.146;2024-01-06T01:34:20;26.88;;;14.73;;
29908;SDS011;36247;51.952;6.146;2024-01-06T01:36:46;25.50;;;14.48;;
29908;SDS011;36247;51.952;6.146;2024-01-06T01:39:13;29.40;;;15.23;;
29908;SDS011;36247;51.952;6.146;2024-01-06T01:41:39;29.77;;;15.88;;
29908;SDS011;36247;51.952;6.146;2024-01-06T01:44:06;30.27;;;15.85;;
29908;SDS011;36247;51.952;6.146;2024-01-06T01:46:33;30.08;;;15.25;;
29908;SDS011;36247;51.952;6.146;2024-01-06T01:49:01;27.58;;;14.05;;
29908;SDS011;36247;51.952;6.146;2024-01-06T01:51:32;29.25;;;14.98;;
29908;SDS011;36247;51.952;6.146;2024-01-06T01:54:01;25.63;;;15.38;;
29908;SDS011;36247;51.952;6.146;2024-01-06T01:56:31;26.58;;;14.65;;
29908;SDS011;36247;51.952;6.146;2024-01-06T01:59:11;25.67;;;14.38;;
29908;SDS011;36247;51.952;6.146;2024-01-06T02:01:38;27.60;;;14.85;;
29908;SDS011;36247;51.952;6.146;2024-01-06T02:04:06;27.73;;;14.40;;
29908;SDS011;36247;51.952;6.146;2024-01-06T02:06:33;31.17;;;15.40;;
29908;SDS011;36247;51.952;6.146;2024-01-06T02:09:01;25.80;;;14.10;;
29908;SDS011;36247;51.952;6.146;2024-01-06T02:11:31;25.58;;;15.13;;
29908;SDS011;36247;51.952;6.146;2024-01-06T02:14:06;29.63;;;14.98;;
29908;SDS011;36247;51.952;6.146;2024-01-06T02:16:38;25.52;;;14.52;;
29908;SDS011;36247;51.952;6.146;2024-01-06T02:19:05;25.98;;;14.48;;
29908;SDS011;36247;51.952;6.146;2024-01-06T02:21:38;28.92;;;15.38;;
29908;SDS011;36247;51.952;6.146;2024-01-06T02:24:07;31.25;;;16.92;;
29908;SDS011;36247;51.952;6.146;2024-01-06T02:26:34;28.55;;;14.57;;
29908;SDS011;36247;51.952;6.146;2024-01-06T02:29:00;28.40;;;15.10;;
29908;SDS011;36247;51.952;6.146;2024-01-06T02:31:27;26.17;;;14.43;;
29908;SDS011;36247;51.952;6.146;2024-01-06T02:33:53;28.80;;;16.08;;
29908;SDS011;36247;51.952;6.146;2024-01-06T02:36:18;29.20;;;14.68;;
29908;SDS011;36247;51.952;6.146;2024-01-06T02:38:44;29.60;;;16.05;;
29908;SDS011;36247;51.952;6.146;2024-01-06T02:41:10;28.90;;;16.05;;
29908;SDS011;36247;51.952;6.146;2024-01-06T02:43:37;26.17;;;13.20;;
29908;SDS011;36247;51.952;6.146;2024-01-06T02:46:04;28.83;;;14.48;;
29908;SDS011;36247;51.952;6.146;2024-01-06T02:48:34;28.63;;;15.40;;
29908;SDS011;36247;51.952;6.146;2024-01-06T02:51:01;32.08;;;17.27;;
29908;SDS011;36247;51.952;6.146;2024-01-06T02:53:31;32.83;;;17.42;;
29908;SDS011;36247;51.952;6.146;2024-01-06T02:55:59;31.55;;;17.83;;
29908;SDS011;36247;51.952;6.146;2024-01-06T02:58:24;32.97;;;18.40;;
29908;SDS011;36247;51.952;6.146;2024-01-06T03:00:50;37.78;;;18.42;;
29908;SDS011;36247;51.952;6.146;2024-01-06T03:03:15;36.70;;;19.55;;
29908;SDS011;36247;51.952;6.146;2024-01-06T03:05:41;39.63;;;19.60;;
29908;SDS011;36247;51.952;6.146;2024-01-06T03:08:06;41.53;;;20.45;;
29908;SDS011;36247;51.952;6.146;2024-01-06T03:10:33;31.27;;;17.60;;
29908;SDS011;36247;51.952;6.146;2024-01-06T03:12:59;35.42;;;18.35;;
29908;SDS011;36247;51.952;6.146;2024-01-06T03:15:25;34.80;;;18.15;;
29908;SDS011;36247;51.952;6.146;2024-01-06T03:17:50;31.67;;;16.60;;
29908;SDS011;36247;51.952;6.146;2024-01-06T03:20:16;32.22;;;16.88;;
29908;SDS011;36247;51.952;6.146;2024-01-06T03:22:41;31.98;;;16.98;;
29908;SDS011;36247;51.952;6.146;2024-01-06T03:25:08;37.95;;;18.75;;
29908;SDS011;36247;51.952;6.146;2024-01-06T03:27:34;38.50;;;18.25;;
29908;SDS011;36247;51.952;6.146;2024-01-06T03:30:01;38.72;;;19.63;;
29908;SDS011;36247;51.952;6.146;2024-01-06T03:32:33;33.50;;;16.83;;
29908;SDS011;36247;51.952;6.146;2024-01-06T03:35:00;36.00;;;18.65;;
29908;SDS011;36247;51.952;6.146;2024-01-06T03:37:26;37.38;;;18.55;;
29908;SDS011;36247;51.952;6.146;2024-01-06T03:39:52;30.98;;;16.90;;
29908;SDS011;36247;51.952;6.146;2024-01-06T03:42:18;33.10;;;15.20;;
29908;SDS011;36247;51.952;6.146;2024-01-06T03:44:44;27.80;;;15.07;;
29908;SDS011;36247;51.952;6.146;2024-01-06T03:47:09;28.40;;;14.05;;
29908;SDS011;36247;51.952;6.146;2024-01-06T03:49:35;28.45;;;15.95;;
29908;SDS011;36247;51.952;6.146;2024-01-06T03:52:00;26.88;;;14.35;;
29908;SDS011;36247;51.952;6.146;2024-01-06T03:54:26;25.25;;;13.95;;
29908;SDS011;36247;51.952;6.146;2024-01-06T03:56:51;29.00;;;14.98;;
29908;SDS011;36247;51.952;6.146;2024-01-06T03:59:17;24.70;;;13.65;;
29908;SDS011;36247;51.952;6.146;2024-01-06T04:01:42;28.35;;;15.30;;
29908;SDS011;36247;51.952;6.146;2024-01-06T04:04:08;29.95;;;15.05;;
29908;SDS011;36247;51.952;6.146;2024-01-06T04:06:33;27.60;;;14.68;;
29908;SDS011;36247;51.952;6.146;2024-01-06T04:09:00;27.95;;;14.98;;
29908;SDS011;36247;51.952;6.146;2024-01-06T04:11:31;36.63;;;17.73;;
29908;SDS011;36247;51.952;6.146;2024-01-06T04:13:58;44.22;;;20.33;;
29908;SDS011;36247;51.952;6.146;2024-01-06T04:16:25;39.63;;;19.48;;
29908;SDS011;36247;51.952;6.146;2024-01-06T04:18:52;42.42;;;20.15;;
29908;SDS011;36247;51.952;6.146;2024-01-06T04:21:18;38.92;;;20.88;;
29908;SDS011;36247;51.952;6.146;2024-01-06T04:23:43;43.97;;;20.92;;
29908;SDS011;36247;51.952;6.146;2024-01-06T04:26:09;45.55;;;21.13;;
29908;SDS011;36247;51.952;6.146;2024-01-06T04:28:35;46.30;;;21.73;;
29908;SDS011;36247;51.952;6.146;2024-01-06T04:31:01;45.28;;;23.45;;
29908;SDS011;36247;51.952;6.146;2024-01-06T04:33:35;49.45;;;22.38;;
29908;SDS011;36247;51.952;6.146;2024-01-06T04:36:03;49.03;;;22.65;;
29908;SDS011;36247;51.952;6.146;2024-01-06T04:38:33;45.85;;;22.27;;
29908;SDS011;36247;51.952;6.146;2024-01-06T04:41:01;48.67;;;22.90;;
29908;SDS011;36247;51.952;6.146;2024-01-06T04:43:30;49.38;;;22.02;;
29908;SDS011;36247;51.952;6.146;2024-01-06T04:45:57;52.08;;;20.88;;
29908;SDS011;36247;51.952;6.146;2024-01-06T04:48:25;49.25;;;23.00;;
29908;SDS011;36247;51.952;6.146;2024-01-06T04:50:50;46.63;;;20.85;;
29908;SDS011;36247;51.952;6.146;2024-01-06T04:53:16;43.15;;;20.80;;
29908;SDS011;36247;51.952;6.146;2024-01-06T04:55:41;46.33;;;22.45;;
29908;SDS011;36247;51.952;6.146;2024-01-06T04:58:07;43.75;;;22.23;;
29908;SDS011;36247;51.952;6.146;2024-01-06T05:00:33;45.22;;;21.55;;
29908;SDS011;36247;51.952;6.146;2024-01-06T05:03:01;45.50;;;22.98;;
29908;SDS011;36247;51.952;6.146;2024-01-06T05:05:31;50.42;;;24.25;;
29908;SDS011;36247;51.952;6.146;2024-01-06T05:07:59;54.63;;;25.10;;
29908;SDS011;36247;51.952;6.146;2024-01-06T05:10:25;54.90;;;24.60;;
29908;SDS011;36247;51.952;6.146;2024-01-06T05:12:51;49.67;;;23.25;;
29908;SDS011;36247;51.952;6.146;2024-01-06T05:15:17;48.10;;;23.63;;
29908;SDS011;36247;51.952;6.146;2024-01-06T05:17:42;46.20;;;22.73;;
29908;SDS011;36247;51.952;6.146;2024-01-06T05:20:08;50.22;;;23.48;;
29908;SDS011;36247;51.952;6.146;2024-01-06T05:22:34;47.35;;;23.63;;
29908;SDS011;36247;51.952;6.146;2024-01-06T05:25:00;48.10;;;23.67;;
29908;SDS011;36247;51.952;6.146;2024-01-06T05:27:25;48.58;;;23.95;;
29908;SDS011;36247;51.952;6.146;2024-01-06T05:29:51;43.10;;;22.98;;
29908;SDS011;36247;51.952;6.146;2024-01-06T05:32:16;45.65;;;21.70;;
29908;SDS011;36247;51.952;6.146;2024-01-06T05:34:42;43.55;;;21.90;;
29908;SDS011;36247;51.952;6.146;2024-01-06T05:37:09;53.83;;;23.45;;
29908;SDS011;36247;51.952;6.146;2024-01-06T05:39:37;40.05;;;21.42;;
29908;SDS011;36247;51.952;6.146;2024-01-06T05:42:06;45.85;;;21.83;;
29908;SDS011;36247;51.952;6.146;2024-01-06T05:44:37;38.90;;;20.17;;
29908;SDS011;36247;51.952;6.146;2024-01-06T05:47:05;42.45;;;22.58;;
29908;SDS011;36247;51.952;6.146;2024-01-06T05:49:34;39.97;;;21.42;;
29908;SDS011;36247;51.952;6.146;2024-01-06T05:52:01;44.33;;;22.30;;
29908;SDS011;36247;51.952;6.146;2024-01-06T05:54:31;37.45;;;19.33;;
29908;SDS011;36247;51.952;6.146;2024-01-06T05:56:59;39.65;;;20.38;;
29908;SDS011;36247;51.952;6.146;2024-01-06T05:59:25;41.75;;;21.33;;
29908;SDS011;36247;51.952;6.146;2024-01-06T06:01:50;37.50;;;19.60;;
29908;SDS011;36247;51.952;6.146;2024-01-06T06:04:17;43.13;;;19.88;;
29908;SDS011;36247;51.952;6.146;2024-01-06T06:06:44;39.63;;;19.80;;
29908;SDS011;36247;51.952;6.146;2024-01-06T06:09:10;38.78;;;20.83;;
29908;SDS011;36247;51.952;6.146;2024-01-06T06:11:36;41.85;;;20.85;;
29908;SDS011;36247;51.952;6.146;2024-01-06T06:14:01;36.67;;;18.67;;
29908;SDS011;36247;51.952;6.146;2024-01-06T06:16:34;41.88;;;20.30;;
29908;SDS011;36247;51.952;6.146;2024-01-06T06:18:59;41.42;;;20.20;;
29908;SDS011;36247;51.952;6.146;2024-01-06T06:21:25;40.03;;;20.00;;
29908;SDS011;36247;51.952;6.146;2024-01-06T06:23:51;42.85;;;20.30;;
29908;SDS011;36247;51.952;6.146;2024-01-06T06:26:16;43.15;;;21.25;;
29908;SDS011;36247;51.952;6.146;2024-01-06T06:28:42;41.33;;;20.70;;
29908;SDS011;36247;51.952;6.146;2024-01-06T06:31:07;41.60;;;20.88;;
29908;SDS011;36247;51.952;6.146;2024-01-06T06:33:33;44.38;;;21.60;;
29908;SDS011;36247;51.952;6.146;2024-01-06T06:35:59;44.20;;;21.10;;
29908;SDS011;36247;51.952;6.146;2024-01-06T06:38:27;41.97;;;22.02;;
29908;SDS011;36247;51.952;6.146;2024-01-06T06:40:53;46.05;;;22.10;;
29908;SDS011;36247;51.952;6.146;2024-01-06T06:43:19;53.50;;;22.75;;
29908;SDS011;36247;51.952;6.146;2024-01-06T06:45:44;49.38;;;22.60;;
29908;SDS011;36247;51.952;6.146;2024-01-06T06:48:10;48.42;;;24.05;;
29908;SDS011;36247;51.952;6.146;2024-01-06T06:50:35;49.35;;;22.98;;
29908;SDS011;36247;51.952;6.146;2024-01-06T06:53:01;45.45;;;22.10;;
29908;SDS011;36247;51.952;6.146;2024-01-06T06:55:31;45.53;;;22.75;;
29908;SDS011;36247;51.952;6.146;2024-01-06T06:57:59;39.30;;;20.45;;
29908;SDS011;36247;51.952;6.146;2024-01-06T07:00:24;37.13;;;18.02;;
29908;SDS011;36247;51.952;6.146;2024-01-06T07:02:50;35.30;;;18.67;;
29908;SDS011;36247;51.952;6.146;2024-01-06T07:05:15;35.35;;;18.67;;
29908;SDS011;36247;51.952;6.146;2024-01-06T07:07:42;34.03;;;18.38;;
29908;SDS011;36247;51.952;6.146;2024-01-06T07:10:13;34.30;;;17.58;;
29908;SDS011;36247;51.952;6.146;2024-01-06T07:12:39;35.35;;;19.10;;
29908;SDS011;36247;51.952;6.146;2024-01-06T07:15:05;33.17;;;19.13;;
29908;SDS011;36247;51.952;6.146;2024-01-06T07:17:33;43.13;;;20.15;;
29908;SDS011;36247;51.952;6.146;2024-01-06T07:19:59;37.50;;;20.27;;
29908;SDS011;36247;51.952;6.146;2024-01-06T07:22:24;37.83;;;21.50;;
29908;SDS011;36247;51.952;6.146;2024-01-06T07:24:50;45.03;;;21.48;;
29908;SDS011;36247;51.952;6.146;2024-01-06T07:27:15;40.35;;;21.27;;
29908;SDS011;36247;51.952;6.146;2024-01-06T07:29:41;40.85;;;21.23;;
29908;SDS011;36247;51.952;6.146;2024-01-06T07:32:06;38.70;;;20.70;;
29908;SDS011;36247;51.952;6.146;2024-01-06T07:34:33;41.65;;;20.80;;
29908;SDS011;36247;51.952;6.146;2024-01-06T07:36:59;41.17;;;22.77;;
29908;SDS011;36247;51.952;6.146;2024-01-06T07:39:25;42.97;;;20.98;;
29908;SDS011;36247;51.952;6.146;2024-01-06T07:41:51;43.85;;;20.80;;
29908;SDS011;36247;51.952;6.146;2024-01-06T07:44:16;41.28;;;20.50;;
29908;SDS011;36247;51.952;6.146;2024-01-06T07:46:48;44.60;;;23.67;;
29908;SDS011;36247;51.952;6.146;2024-01-06T07:49:17;42.30;;;21.63;;
29908;SDS011;36247;51.952;6.146;2024-01-06T07:51:42;42.58;;;22.98;;
29908;SDS011;36247;51.952;6.146;2024-01-06T07:54:08;41.83;;;22.05;;
29908;SDS011;36247;51.952;6.146;2024-01-06T07:56:34;39.42;;;21.05;;
29908;SDS011;36247;51.952;6.146;2024-01-06T07:59:01;43.55;;;22.67;;
29908;SDS011;36247;51.952;6.146;2024-01-06T08:01:33;37.58;;;17.23;;
29908;SDS011;36247;51.952;6.146;2024-01-06T08:03:59;45.45;;;23.23;;
29908;SDS011;36247;51.952;6.146;2024-01-06T08:06:25;48.85;;;23.52;;
29908;SDS011;36247;51.952;6.146;2024-01-06T08:08:50;44.63;;;24.23;;
29908;SDS011;36247;51.952;6.146;2024-01-06T08:11:16;42.38;;;22.80;;
29908;SDS011;36247;51.952;6.146;2024-01-06T08:13:41;44.47;;;23.92;;
29908;SDS011;36247;51.952;6.146;2024-01-06T08:16:07;49.85;;;25.05;;
29908;SDS011;36247;51.952;6.146;2024-01-06T08:18:34;45.25;;;22.40;;
29908;SDS011;36247;51.952;6.146;2024-01-06T08:21:01;41.42;;;22.70;;
29908;SDS011;36247;51.952;6.146;2024-01-06T08:23:29;44.10;;;23.00;;
29908;SDS011;36247;51.952;6.146;2024-01-06T08:25:54;43.55;;;24.08;;
29908;SDS011;36247;51.952;6.146;2024-01-06T08:28:20;48.47;;;23.20;;
29908;SDS011;36247;51.952;6.146;2024-01-06T08:30:48;41.90;;;22.02;;
29908;SDS011;36247;51.952;6.146;2024-01-06T08:33:14;43.22;;;21.70;;
29908;SDS011;36247;51.952;6.146;2024-01-06T08:35:40;45.88;;;22.38;;
29908;SDS011;36247;51.952;6.146;2024-01-06T08:38:06;46.22;;;22.55;;
29908;SDS011;36247;51.952;6.146;2024-01-06T08:40:34;48.38;;;25.45;;
29908;SDS011;36247;51.952;6.146;2024-01-06T08:43:01;47.45;;;22.83;;
29908;SDS011;36247;51.952;6.146;2024-01-06T08:45:30;41.67;;;21.52;;
29908;SDS011;36247;51.952;6.146;2024-01-06T08:47:56;40.60;;;21.92;;
29908;SDS011;36247;51.952;6.146;2024-01-06T08:50:22;47.38;;;21.83;;
29908;SDS011;36247;51.952;6.146;2024-01-06T08:52:48;45.10;;;22.98;;
29908;SDS011;36247;51.952;6.146;2024-01-06T08:55:13;50.00;;;24.15;;
29908;SDS011;36247;51.952;6.146;2024-01-06T08:57:39;45.78;;;21.20;;
29908;SDS011;36247;51.952;6.146;2024-01-06T09:00:06;45.85;;;21.75;;
29908;SDS011;36247;51.952;6.146;2024-01-06T09:02:34;50.08;;;22.58;;
29908;SDS011;36247;51.952;6.146;2024-01-06T09:05:01;42.05;;;21.42;;
29908;SDS011;36247;51.952;6.146;2024-01-06T09:07:31;38.90;;;19.77;;
29908;SDS011;36247;51.952;6.146;2024-01-06T09:09:56;40.90;;;20.80;;
29908;SDS011;36247;51.952;6.146;2024-01-06T09:12:22;33.63;;;16.65;;
29908;SDS011;36247;51.952;6.146;2024-01-06T09:14:48;30.88;;;17.25;;
29908;SDS011;36247;51.952;6.146;2024-01-06T09:17:13;33.40;;;17.27;;
29908;SDS011;36247;51.952;6.146;2024-01-06T09:19:38;36.95;;;18.80;;
29908;SDS011;36247;51.952;6.146;2024-01-06T09:22:05;35.42;;;18.05;;
29908;SDS011;36247;51.952;6.146;2024-01-06T09:24:37;34.55;;;17.50;;
29908;SDS011;36247;51.952;6.146;2024-01-06T09:27:14;34.47;;;17.48;;
29908;SDS011;36247;51.952;6.146;2024-01-06T09:29:40;32.33;;;17.80;;
29908;SDS011;36247;51.952;6.146;2024-01-06T09:32:06;38.22;;;19.58;;
29908;SDS011;36247;51.952;6.146;2024-01-06T09:34:35;36.42;;;17.95;;
29908;SDS011;36247;51.952;6.146;2024-01-06T09:37:06;33.53;;;16.58;;
29908;SDS011;36247;51.952;6.146;2024-01-06T09:39:34;40.72;;;21.10;;
29908;SDS011;36247;51.952;6.146;2024-01-06T09:42:01;36.10;;;18.95;;
29908;SDS011;36247;51.952;6.146;2024-01-06T09:44:36;35.28;;;18.02;;
29908;SDS011;36247;51.952;6.146;2024-01-06T09:47:04;37.58;;;18.75;;
29908;SDS011;36247;51.952;6.146;2024-01-06T09:49:31;35.05;;;19.23;;
29908;SDS011;36247;51.952;6.146;2024-01-06T09:52:05;30.03;;;15.33;;
29908;SDS011;36247;51.952;6.146;2024-01-06T09:54:43;39.58;;;19.52;;
29908;SDS011;36247;51.952;6.146;2024-01-06T09:57:16;32.92;;;18.25;;
29908;SDS011;36247;51.952;6.146;2024-01-06T09:59:43;37.28;;;20.42;;
29908;SDS011;36247;51.952;6.146;2024-01-06T10:02:11;34.03;;;17.40;;
29908;SDS011;36247;51.952;6.146;2024-01-06T10:04:39;34.17;;;17.92;;
29908;SDS011;36247;51.952;6.146;2024-01-06T10:07:06;39.10;;;19.90;;
29908;SDS011;36247;51.952;6.146;2024-01-06T10:09:31;36.45;;;18.58;;
29908;SDS011;36247;51.952;6.146;2024-01-06T10:12:01;34.65;;;17.83;;
29908;SDS011;36247;51.952;6.146;2024-01-06T10:14:26;37.08;;;19.55;;
29908;SDS011;36247;51.952;6.146;2024-01-06T10:16:52;37.05;;;18.00;;
29908;SDS011;36247;51.952;6.146;2024-01-06T10:19:18;33.83;;;18.88;;
29908;SDS011;36247;51.952;6.146;2024-01-06T10:21:43;33.65;;;17.13;;
29908;SDS011;36247;51.952;6.146;2024-01-06T10:24:09;35.13;;;18.27;;
29908;SDS011;36247;51.952;6.146;2024-01-06T10:26:35;32.72;;;17.45;;
29908;SDS011;36247;51.952;6.146;2024-01-06T10:29:01;36.08;;;18.33;;
29908;SDS011;36247;51.952;6.146;2024-01-06T10:31:31;37.22;;;18.70;;
29908;SDS011;36247;51.952;6.146;2024-01-06T10:33:59;37.25;;;20.27;;
29908;SDS011;36247;51.952;6.146;2024-01-06T10:36:25;36.40;;;19.50;;
29908;SDS011;36247;51.952;6.146;2024-01-06T10:38:52;36.58;;;20.45;;
29908;SDS011;36247;51.952;6.146;2024-01-06T10:41:17;40.17;;;21.13;;
29908;SDS011;36247;51.952;6.146;2024-01-06T10:43:45;42.63;;;21.63;;
29908;SDS011;36247;51.952;6.146;2024-01-06T10:46:16;36.03;;;17.80;;
29908;SDS011;36247;51.952;6.146;2024-01-06T10:48:43;42.47;;;20.30;;
29908;SDS011;36247;51.952;6.146;2024-01-06T10:51:14;34.58;;;18.67;;
29908;SDS011;36247;51.952;6.146;2024-01-06T10:53:40;41.28;;;19.40;;
29908;SDS011;36247;51.952;6.146;2024-01-06T10:56:07;40.17;;;20.00;;
29908;SDS011;36247;51.952;6.146;2024-01-06T10:58:36;39.90;;;20.60;;
29908;SDS011;36247;51.952;6.146;2024-01-06T11:01:08;41.20;;;20.17;;
29908;SDS011;36247;51.952;6.146;2024-01-06T11:03:35;37.58;;;19.40;;
29908;SDS011;36247;51.952;6.146;2024-01-06T11:06:05;37.50;;;19.90;;
29908;SDS011;36247;51.952;6.146;2024-01-06T11:08:36;35.65;;;19.77;;
29908;SDS011;36247;51.952;6.146;2024-01-06T11:11:17;41.20;;;20.15;;
29908;SDS011;36247;51.952;6.146;2024-01-06T11:13:45;39.13;;;20.52;;
29908;SDS011;36247;51.952;6.146;2024-01-06T11:19:01;34.85;;;18.48;;
29908;SDS011;36247;51.952;6.146;2024-01-06T11:21:33;40.35;;;20.02;;
29908;SDS011;36247;51.952;6.146;2024-01-06T11:29:09;39.38;;;18.23;;
29908;SDS011;36247;51.952;6.146;2024-01-06T11:31:36;37.67;;;18.52;;
29908;SDS011;36247;51.952;6.146;2024-01-06T11:34:12;35.13;;;19.52;;
29908;SDS011;36247;51.952;6.146;2024-01-06T11:36:39;37.70;;;19.65;;
29908;SDS011;36247;51.952;6.146;2024-01-06T11:39:06;37.40;;;20.17;;
29908;SDS011;36247;51.952;6.146;2024-01-06T11:41:47;41.97;;;23.13;;
29908;SDS011;36247;51.952;6.146;2024-01-06T11:44:17;35.60;;;18.63;;
29908;SDS011;36247;51.952;6.146;2024-01-06T11:46:44;39.28;;;20.65;;
29908;SDS011;36247;51.952;6.146;2024-01-06T11:49:10;38.05;;;20.63;;
29908;SDS011;36247;51.952;6.146;2024-01-06T11:51:37;37.88;;;22.08;;
29908;SDS011;36247;51.952;6.146;2024-01-06T11:54:05;37.65;;;20.98;;
29908;SDS011;36247;51.952;6.146;2024-01-06T11:56:34;37.92;;;19.80;;
29908;SDS011;36247;51.952;6.146;2024-01-06T11:59:01;33.67;;;19.33;;
29908;SDS011;36247;51.952;6.146;2024-01-06T12:01:39;31.98;;;18.85;;
29908;SDS011;36247;51.952;6.146;2024-01-06T12:04:07;32.22;;;18.75;;
29908;SDS011;36247;51.952;6.146;2024-01-06T12:06:38;33.13;;;19.33;;
29908;SDS011;36247;51.952;6.146;2024-01-06T12:09:07;32.63;;;19.02;;
29908;SDS011;36247;51.952;6.146;2024-01-06T12:11:34;30.95;;;18.15;;
29908;SDS011;36247;51.952;6.146;2024-01-06T12:14:06;33.45;;;18.70;;
29908;SDS011;36247;51.952;6.146;2024-01-06T12:16:37;29.98;;;17.40;;
29908;SDS011;36247;51.952;6.146;2024-01-06T12:19:06;38.25;;;19.67;;
29908;SDS011;36247;51.952;6.146;2024-01-06T12:21:34;31.42;;;18.45;;
29908;SDS011;36247;51.952;6.146;2024-01-06T12:24:20;32.72;;;19.25;;
29908;SDS011;36247;51.952;6.146;2024-01-06T12:26:47;38.13;;;18.08;;
29908;SDS011;36247;51.952;6.146;2024-01-06T12:29:14;28.50;;;18.13;;
29908;SDS011;36247;51.952;6.146;2024-01-06T12:31:40;29.38;;;18.85;;
29908;SDS011;36247;51.952;6.146;2024-01-06T12:34:07;36.83;;;19.85;;
29908;SDS011;36247;51.952;6.146;2024-01-06T12:36:38;32.00;;;18.80;;
29908;SDS011;36247;51.952;6.146;2024-01-06T12:39:09;30.45;;;19.00;;
29908;SDS011;36247;51.952;6.146;2024-01-06T12:41:38;30.48;;;18.13;;
29908;SDS011;36247;51.952;6.146;2024-01-06T12:44:07;32.63;;;19.23;;
29908;SDS011;36247;51.952;6.146;2024-01-06T12:46:34;28.88;;;18.10;;
29908;SDS011;36247;51.952;6.146;2024-01-06T12:49:04;27.85;;;17.85;;
29908;SDS011;36247;51.952;6.146;2024-01-06T12:51:34;28.92;;;17.27;;
29908;SDS011;36247;51.952;6.146;2024-01-06T12:54:01;27.65;;;17.73;;
29908;SDS011;36247;51.952;6.146;2024-01-06T12:56:34;29.67;;;18.42;;
29908;SDS011;36247;51.952;6.146;2024-01-06T12:59:01;27.92;;;18.58;;
29908;SDS011;36247;51.952;6.146;2024-01-06T13:01:34;30.23;;;18.50;;
29908;SDS011;36247;51.952;6.146;2024-01-06T13:04:01;31.63;;;18.85;;
29908;SDS011;36247;51.952;6.146;2024-01-06T13:06:26;30.80;;;20.15;;
29908;SDS011;36247;51.952;6.146;2024-01-06T13:08:52;35.03;;;20.90;;
29908;SDS011;36247;51.952;6.146;2024-01-06T13:11:18;33.47;;;20.85;;
29908;SDS011;36247;51.952;6.146;2024-01-06T13:13:44;32.67;;;20.17;;
29908;SDS011;36247;51.952;6.146;2024-01-06T13:16:10;35.20;;;20.77;;
29908;SDS011;36247;51.952;6.146;2024-01-06T13:18:36;35.88;;;21.08;;
29908;SDS011;36247;51.952;6.146;2024-01-06T13:21:01;34.28;;;20.77;;
29908;SDS011;36247;51.952;6.146;2024-01-06T13:23:34;34.85;;;21.02;;
29908;SDS011;36247;51.952;6.146;2024-01-06T13:26:01;38.78;;;21.70;;
29908;SDS011;36247;51.952;6.146;2024-01-06T13:28:26;32.70;;;20.48;;
29908;SDS011;36247;51.952;6.146;2024-01-06T13:30:52;34.85;;;20.65;;
29908;SDS011;36247;51.952;6.146;2024-01-06T13:33:18;34.42;;;21.13;;
29908;SDS011;36247;51.952;6.146;2024-01-06T13:35:44;36.38;;;23.15;;
29908;SDS011;36247;51.952;6.146;2024-01-06T13:38:10;37.08;;;22.00;;
29908;SDS011;36247;51.952;6.146;2024-01-06T13:40:36;34.22;;;21.73;;
29908;SDS011;36247;51.952;6.146;2024-01-06T13:43:05;37.13;;;22.27;;
29908;SDS011;36247;51.952;6.146;2024-01-06T13:45:35;37.47;;;22.15;;
29908;SDS011;36247;51.952;6.146;2024-01-06T13:48:01;34.25;;;21.90;;
29908;SDS011;36247;51.952;6.146;2024-01-06T13:50:34;36.03;;;22.08;;
29908;SDS011;36247;51.952;6.146;2024-01-06T13:53:01;44.33;;;24.88;;
29908;SDS011;36247;51.952;6.146;2024-01-06T13:55:32;42.30;;;25.58;;
29908;SDS011;36247;51.952;6.146;2024-01-06T13:58:04;33.85;;;21.13;;
29908;SDS011;36247;51.952;6.146;2024-01-06T14:00:36;36.27;;;22.03;;
29908;SDS011;36247;51.952;6.146;2024-01-06T14:03:06;36.72;;;22.70;;
29908;SDS011;36247;51.952;6.146;2024-01-06T14:05:35;38.50;;;24.17;;
29908;SDS011;36247;51.952;6.146;2024-01-06T14:08:05;36.05;;;21.30;;
29908;SDS011;36247;51.952;6.146;2024-01-06T14:10:36;34.00;;;20.67;;
29908;SDS011;36247;51.952;6.146;2024-01-06T14:13:05;35.45;;;22.95;;
29908;SDS011;36247;51.952;6.146;2024-01-06T14:15:34;40.88;;;24.00;;
29908;SDS011;36247;51.952;6.146;2024-01-06T14:18:02;36.45;;;24.08;;
29908;SDS011;36247;51.952;6.146;2024-01-06T14:20:36;37.95;;;23.85;;
29908;SDS011;36247;51.952;6.146;2024-01-06T14:23:07;36.58;;;21.02;;
29908;SDS011;36247;51.952;6.146;2024-01-06T14:25:36;35.60;;;21.25;;
29908;SDS011;36247;51.952;6.146;2024-01-06T14:28:05;36.35;;;22.38;;
29908;SDS011;36247;51.952;6.146;2024-01-06T14:30:36;37.55;;;23.42;;